^^
Your Local Weather - Clay, NY Station Historical Data
Daily Summary for December 18, 2017 Units:  English    Metric   Both
« Previous Day
Next Day »
Daily Weekly Monthly Yearly Custom
  High: Low: Average:
Temperature: 39.1 °F 21.9 °F 30.2 °F
Dew Point: 36.2 °F 17.2 °F 27.2 °F
Humidity: 93% 82% 88%
Wind Speed: 2.0mph 0.0mph 0.7mph
Wind Gust: 6.0mph - -
Wind- - SE
Pressure: 30.11 in 29.82 in -
Precipitation: 0.31 in    
Historical Graphs
 
 
Tabular Data for December 18, 2017
Time Temperature Dew Point Pressure Wind Wind Speed Wind Gust Humidity Rainfall Rate (Hourly) solar
00:04 22.0 °F 17.3 °F 30.11 in ENE 2.0 mph 2.0 mph 82% 0.00 in 0 W/m2
00:10 21.9 °F 17.2 °F 30.10 in East 2.0 mph 3.0 mph 82% 0.00 in 0 W/m2
00:16 21.9 °F 17.2 °F 30.09 in ENE 2.0 mph 3.0 mph 82% 0.00 in 0 W/m2
00:22 21.9 °F 17.2 °F 30.09 in ENE 2.0 mph 3.0 mph 82% 0.00 in 0 W/m2
00:28 21.9 °F 17.2 °F 30.10 in ENE 1.0 mph 3.0 mph 82% 0.00 in 0 W/m2
00:30 21.9 °F 17.2 °F 30.10 in ENE 2.0 mph 2.0 mph 82% 0.00 in 0 W/m2
00:36 22.0 °F 17.3 °F 30.10 in East 1.0 mph 2.0 mph 82% 0.00 in 0 W/m2
00:42 22.1 °F 17.7 °F 30.10 in East 2.0 mph 2.0 mph 83% 0.00 in 0 W/m2
00:48 22.1 °F 17.7 °F 30.10 in East 2.0 mph 5.0 mph 83% 0.00 in 0 W/m2
00:54 22.2 °F 17.8 °F 30.09 in SE 1.0 mph 4.0 mph 83% 0.00 in 0 W/m2
00:58 22.1 °F 17.7 °F 30.09 in ENE 1.0 mph 4.0 mph 83% 0.00 in 0 W/m2
01:04 22.2 °F 17.8 °F 30.09 in ENE 1.0 mph 3.0 mph 83% 0.00 in 0 W/m2
01:08 22.2 °F 17.8 °F 30.09 in ENE 1.0 mph 4.0 mph 83% 0.00 in 0 W/m2
01:14 22.2 °F 17.8 °F 30.09 in ENE 2.0 mph 3.0 mph 83% 0.00 in 0 W/m2
01:20 22.1 °F 17.7 °F 30.09 in East 2.0 mph 2.0 mph 83% 0.00 in 0 W/m2
01:26 22.1 °F 17.7 °F 30.09 in East 1.0 mph 3.0 mph 83% 0.00 in 0 W/m2
01:32 22.1 °F 17.7 °F 30.08 in East 2.0 mph 2.0 mph 83% 0.00 in 0 W/m2
01:38 22.2 °F 17.8 °F 30.08 in East 2.0 mph 5.0 mph 83% 0.00 in 0 W/m2
01:44 22.1 °F 18.0 °F 30.07 in East 2.0 mph 3.0 mph 84% 0.00 in 0 W/m2
01:50 22.2 °F 18.1 °F 30.08 in ESE 1.0 mph 1.0 mph 84% 0.00 in 0 W/m2
01:56 22.2 °F 18.1 °F 30.08 in East 1.0 mph 2.0 mph 84% 0.00 in 0 W/m2
02:02 22.2 °F 18.1 °F 30.08 in East 1.0 mph 1.0 mph 84% 0.00 in 0 W/m2
02:08 22.3 °F 18.2 °F 30.08 in East 1.0 mph 2.0 mph 84% 0.00 in 0 W/m2
02:14 22.4 °F 18.6 °F 30.08 in East 1.0 mph 1.0 mph 85% 0.00 in 0 W/m2
02:20 22.4 °F 18.6 °F 30.07 in East 1.0 mph 3.0 mph 85% 0.00 in 0 W/m2
02:26 22.4 °F 18.6 °F 30.07 in East 2.0 mph 5.0 mph 85% 0.00 in 0 W/m2
02:32 22.5 °F 18.7 °F 30.06 in East 1.0 mph 3.0 mph 85% 0.00 in 0 W/m2
02:38 22.5 °F 18.7 °F 30.06 in East 2.0 mph 5.0 mph 85% 0.00 in 0 W/m2
02:44 22.5 °F 18.7 °F 30.06 in SE 2.0 mph 3.0 mph 85% 0.00 in 0 W/m2
02:50 22.5 °F 18.7 °F 30.06 in SE 1.0 mph 1.0 mph 85% 0.00 in 0 W/m2
02:54 22.5 °F 18.7 °F 30.06 in SE 1.0 mph 3.0 mph 85% 0.00 in 0 W/m2
03:00 22.5 °F 18.7 °F 30.06 in ENE 1.0 mph 1.0 mph 85% 0.00 in 0 W/m2
03:06 22.5 °F 18.9 °F 30.05 in East 1.0 mph 2.0 mph 86% 0.00 in 0 W/m2
03:12 22.4 °F 18.8 °F 30.05 in ENE 1.0 mph 4.0 mph 86% 0.00 in 0 W/m2
03:18 22.4 °F 18.8 °F 30.05 in East 2.0 mph 4.0 mph 86% 0.00 in 0 W/m2
03:24 22.4 °F 18.8 °F 30.05 in East 2.0 mph 3.0 mph 86% 0.00 in 0 W/m2
03:30 22.4 °F 18.8 °F 30.04 in East 2.0 mph 2.0 mph 86% 0.00 in 0 W/m2
03:36 22.4 °F 18.8 °F 30.05 in ENE 2.0 mph 3.0 mph 86% 0.00 in 0 W/m2
03:42 22.4 °F 18.8 °F 30.05 in ENE 1.0 mph 2.0 mph 86% 0.00 in 0 W/m2
03:46 22.4 °F 18.8 °F 30.05 in ESE 1.0 mph 6.0 mph 86% 0.00 in 0 W/m2
03:52 22.5 °F 18.9 °F 30.04 in ESE 1.0 mph 1.0 mph 86% 0.00 in 0 W/m2
03:58 22.5 °F 19.2 °F 30.04 in ESE 1.0 mph 2.0 mph 87% 0.00 in 0 W/m2
04:04 22.6 °F 19.3 °F 30.04 in ESE 1.0 mph 1.0 mph 87% 0.00 in 0 W/m2
04:10 22.6 °F 19.0 °F 30.04 in Calm   1.0 mph 86% 0.00 in 0 W/m2
04:16 22.7 °F 19.4 °F 30.03 in East 1.0 mph 2.0 mph 87% 0.00 in 0 W/m2
04:20 22.8 °F 19.5 °F 30.03 in SE 1.0 mph 3.0 mph 87% 0.00 in 0 W/m2
04:26 22.8 °F 19.5 °F 30.03 in ESE 1.0 mph 3.0 mph 87% 0.00 in 0 W/m2
04:32 22.9 °F 19.6 °F 30.03 in ESE 1.0 mph 1.0 mph 87% 0.00 in 0 W/m2
04:38 22.9 °F 19.6 °F 30.02 in ESE 1.0 mph 2.0 mph 87% 0.00 in 0 W/m2
04:44 22.9 °F 19.6 °F 30.02 in ESE 1.0 mph 2.0 mph 87% 0.00 in 0 W/m2
04:50 23.0 °F 19.4 °F 30.02 in ESE 1.0 mph 1.0 mph 86% 0.00 in 0 W/m2
04:56 23.1 °F 19.8 °F 30.02 in Calm   1.0 mph 87% 0.00 in 0 W/m2
05:02 23.1 °F 19.8 °F 30.02 in Calm     87% 0.00 in 0 W/m2
05:08 23.2 °F 19.9 °F 30.03 in Calm     87% 0.00 in 0 W/m2
05:18 23.3 °F 19.7 °F 30.03 in Calm     86% 0.00 in 0 W/m2
05:24 23.3 °F 19.7 °F 30.02 in Calm     86% 0.00 in 0 W/m2
05:30 23.4 °F 19.8 °F 30.02 in Calm     86% 0.00 in 0 W/m2
05:36 23.5 °F 19.9 °F 30.02 in Calm   2.0 mph 86% 0.00 in 0 W/m2
05:42 23.5 °F 19.9 °F 30.02 in Calm   1.0 mph 86% 0.00 in 0 W/m2
05:48 23.5 °F 19.9 °F 30.02 in ESE 1.0 mph 2.0 mph 86% 0.00 in 0 W/m2
05:52 23.5 °F 19.9 °F 30.02 in ESE 1.0 mph 1.0 mph 86% 0.00 in 0 W/m2
05:58 23.6 °F 20.0 °F 30.01 in Calm   2.0 mph 86% 0.00 in 0 W/m2
06:04 23.6 °F 20.0 °F 30.01 in SE 1.0 mph 2.0 mph 86% 0.00 in 0 W/m2
06:10 23.5 °F 19.9 °F 30.01 in East 2.0 mph 2.0 mph 86% 0.00 in 0 W/m2
06:16 23.5 °F 19.9 °F 30.01 in East 1.0 mph 2.0 mph 86% 0.00 in 0 W/m2
06:22 23.5 °F 19.7 °F 30.01 in East 1.0 mph 2.0 mph 85% 0.00 in 0 W/m2
06:28 23.6 °F 20.0 °F 30.01 in SE 1.0 mph 2.0 mph 86% 0.00 in 0 W/m2
06:32 23.6 °F 20.0 °F 30.01 in ESE 1.0 mph 1.0 mph 86% 0.00 in 0 W/m2
06:38 23.6 °F 19.8 °F 30.02 in ESE 1.0 mph 2.0 mph 85% 0.00 in 0 W/m2
06:44 23.7 °F 19.9 °F 30.02 in Calm   1.0 mph 85% 0.00 in 0 W/m2
06:50 23.8 °F 19.9 °F 30.02 in Calm     85% 0.00 in 0 W/m2
06:54 23.8 °F 19.9 °F 30.02 in Calm   1.0 mph 85% 0.00 in 0 W/m2
07:00 23.9 °F 20.0 °F 30.02 in Calm     85% 0.00 in 0 W/m2
07:06 24.0 °F 20.1 °F 30.02 in Calm   1.0 mph 85% 0.00 in 0 W/m2
07:10 24.0 °F 20.1 °F 30.02 in ESE 1.0 mph 1.0 mph 85% 0.00 in 0 W/m2
07:16 24.1 °F 20.2 °F 30.02 in Calm   1.0 mph 85% 0.00 in 0 W/m2
07:22 24.2 °F 20.3 °F 30.02 in Calm     85% 0.00 in 0 W/m2
07:28 24.3 °F 20.4 °F 30.00 in ESE 1.0 mph 2.0 mph 85% 0.00 in 0 W/m2
07:34 24.4 °F 20.5 °F 30.00 in ENE 1.0 mph 1.0 mph 85% 0.00 in 0 W/m2
07:40 24.4 °F 20.5 °F 30.00 in East 1.0 mph 2.0 mph 85% 0.00 in 0 W/m2
07:46 24.5 °F 20.6 °F 30.00 in East 1.0 mph 2.0 mph 85% 0.00 in 0 W/m2
07:52 24.6 °F 20.7 °F 30.00 in East 1.0 mph 3.0 mph 85% 0.00 in 0 W/m2
08:04 24.7 °F 20.8 °F 29.99 in East 1.0 mph 1.0 mph 85% 0.00 in 12 W/m2
08:10 24.8 °F 20.9 °F 30.00 in East 1.0 mph 1.0 mph 85% 0.00 in 14 W/m2
08:16 25.0 °F 21.1 °F 30.00 in Calm   1.0 mph 85% 0.00 in 18 W/m2
08:22 25.1 °F 21.5 °F 30.00 in Calm     86% 0.00 in 18 W/m2
08:28 25.2 °F 21.3 °F 30.00 in East 1.0 mph 2.0 mph 85% 0.00 in 19 W/m2
08:36 25.4 °F 21.5 °F 30.00 in East 1.0 mph 1.0 mph 85% 0.00 in 46 W/m2
08:42 25.5 °F 21.6 °F 29.99 in Calm   1.0 mph 85% 0.00 in 70 W/m2
08:48 25.8 °F 21.9 °F 29.99 in East 1.0 mph 1.0 mph 85% 0.00 in 47 W/m2
08:54 25.8 °F 21.9 °F 29.99 in ESE 1.0 mph 3.0 mph 85% 0.00 in 56 W/m2
09:00 26.0 °F 22.1 °F 29.99 in SE 2.0 mph 2.0 mph 85% 0.00 in 76 W/m2
09:06 26.2 °F 22.3 °F 29.99 in East 2.0 mph 2.0 mph 85% 0.00 in 83 W/m2
09:12 26.3 °F 22.1 °F 29.99 in East 1.0 mph 3.0 mph 84% 0.00 in 51 W/m2
09:18 26.5 °F 22.3 °F 29.98 in East 1.0 mph 3.0 mph 84% 0.00 in 77 W/m2
09:24 26.8 °F 22.9 °F 29.99 in East 1.0 mph 2.0 mph 85% 0.00 in 63 W/m2
09:30 27.0 °F 23.1 °F 29.98 in East 1.0 mph 1.0 mph 85% 0.00 in 77 W/m2
09:38 27.2 °F 23.3 °F 29.98 in East 1.0 mph 2.0 mph 85% 0.00 in 65 W/m2
09:44 27.4 °F 23.5 °F 29.98 in East 1.0 mph 2.0 mph 85% 0.00 in 69 W/m2
09:50 27.6 °F 24.0 °F 29.98 in Calm     86% 0.00 in 76 W/m2
09:56 28.0 °F 24.4 °F 29.98 in Calm     86% 0.00 in 74 W/m2
10:02 28.3 °F 24.6 °F 29.98 in Calm     86% 0.00 in 62 W/m2
10:08 28.4 °F 24.7 °F 29.98 in Calm     86% 0.00 in 88 W/m2
10:14 28.6 °F 24.9 °F 29.98 in Calm     86% 0.00 in 63 W/m2
10:20 28.8 °F 25.1 °F 29.97 in Calm     86% 0.00 in 62 W/m2
10:26 28.9 °F 25.2 °F 29.97 in East 1.0 mph 2.0 mph 86% 0.00 in 84 W/m2
10:32 29.2 °F 25.8 °F 29.97 in Calm     87% 0.00 in 81 W/m2
10:38 29.6 °F 26.2 °F 29.97 in Calm     87% 0.00 in 93 W/m2
10:44 29.8 °F 26.4 °F 29.96 in Calm   2.0 mph 87% 0.00 in 93 W/m2
10:50 29.8 °F 26.4 °F 29.96 in East 1.0 mph 2.0 mph 87% 0.00 in 86 W/m2
10:54 29.9 °F 26.5 °F 29.95 in East 1.0 mph 3.0 mph 87% 0.00 in 111 W/m2
10:58 30.0 °F 26.9 °F 29.95 in East 1.0 mph 3.0 mph 88% 0.00 in 102 W/m2
11:04 30.2 °F 27.1 °F 29.95 in East 1.0 mph 2.0 mph 88% 0.00 in 102 W/m2
11:10 30.5 °F 27.4 °F 29.94 in East 1.0 mph 1.0 mph 88% 0.00 in 84 W/m2
11:18 30.7 °F 27.6 °F 29.94 in Calm   1.0 mph 88% 0.00 in 70 W/m2
11:24 30.8 °F 27.7 °F 29.94 in Calm     88% 0.00 in 63 W/m2
11:30 31.0 °F 27.9 °F 29.93 in Calm     88% 0.00 in 79 W/m2
11:36 31.2 °F 28.1 °F 29.93 in Calm   1.0 mph 88% 0.00 in 121 W/m2
11:42 31.6 °F 28.7 °F 29.92 in Calm     89% 0.00 in 142 W/m2
11:46 31.7 °F 28.8 °F 29.92 in Calm   1.0 mph 89% 0.00 in 100 W/m2
11:52 31.9 °F 29.0 °F 29.92 in Calm     89% 0.00 in 105 W/m2
11:58 32.2 °F 29.3 °F 29.91 in Calm     89% 0.00 in 102 W/m2
12:06 32.3 °F 29.4 °F 29.91 in Calm     89% 0.00 in 88 W/m2
12:12 32.5 °F 29.6 °F 29.91 in Calm     89% 0.00 in 81 W/m2
12:18 32.6 °F 30.0 °F 29.91 in Calm   1.0 mph 90% 0.00 in 93 W/m2
12:20 32.6 °F 30.0 °F 29.90 in Calm   1.0 mph 90% 0.00 in 104 W/m2
12:26 32.7 °F 30.1 °F 29.89 in Calm   1.0 mph 90% 0.00 in 88 W/m2
12:32 32.9 °F 30.3 °F 29.89 in Calm   1.0 mph 90% 0.00 in 77 W/m2
12:38 33.0 °F 30.4 °F 29.89 in Calm   1.0 mph 90% 0.00 in 83 W/m2
12:44 33.1 °F 30.5 °F 29.89 in Calm     90% 0.00 in 62 W/m2
12:50 33.1 °F 30.5 °F 29.88 in Calm     90% 0.00 in 58 W/m2
12:56 33.2 °F 30.6 °F 29.89 in Calm     90% 0.00 in 51 W/m2
13:02 33.3 °F 30.7 °F 29.88 in Calm     90% 0.00 in 53 W/m2
13:08 33.3 °F 31.0 °F 29.88 in Calm   1.0 mph 91% 0.00 in 60 W/m2
13:14 33.4 °F 31.1 °F 29.87 in Calm     91% 0.00 in 63 W/m2
13:20 33.5 °F 31.2 °F 29.87 in Calm     91% 0.00 in 72 W/m2
13:26 33.6 °F 31.3 °F 29.87 in Calm     91% 0.00 in 70 W/m2
13:32 33.8 °F 31.5 °F 29.86 in Calm     91% 0.00 in 62 W/m2
13:36 34.0 °F 31.6 °F 29.86 in Calm     91% 0.00 in 56 W/m2
13:42 34.0 °F 31.6 °F 29.86 in Calm     91% 0.00 in 58 W/m2
13:48 34.1 °F 32.0 °F 29.86 in Calm     92% 0.00 in 49 W/m2
13:54 34.1 °F 32.0 °F 29.86 in Calm     92% 0.00 in 49 W/m2
14:00 34.1 °F 32.0 °F 29.86 in Calm     92% 0.00 in 42 W/m2
14:06 34.0 °F 31.9 °F 29.86 in Calm     92% 0.00 in 42 W/m2
14:12 33.9 °F 31.6 °F 29.85 in Calm   1.0 mph 91% 0.00 in 44 W/m2
14:14 33.9 °F 31.6 °F 29.85 in Calm   1.0 mph 91% 0.00 in 39 W/m2
14:20 33.8 °F 31.7 °F 29.85 in Calm     92% 0.00 in 51 W/m2
14:26 34.0 °F 31.9 °F 29.85 in Calm     92% 0.00 in 49 W/m2
14:32 34.1 °F 32.0 °F 29.85 in Calm     92% 0.00 in 58 W/m2
14:38 34.3 °F 32.2 °F 29.85 in Calm     92% 0.00 in 63 W/m2
14:44 34.4 °F 32.3 °F 29.85 in Calm     92% 0.00 in 51 W/m2
14:50 34.5 °F 32.4 °F 29.85 in Calm     92% 0.00 in 44 W/m2
14:56 34.5 °F 32.4 °F 29.84 in Calm     92% 0.00 in 44 W/m2
14:58 34.5 °F 32.4 °F 29.84 in Calm     92% 0.00 in 33 W/m2
15:04 34.5 °F 32.4 °F 29.84 in Calm     92% 0.00 in 39 W/m2
15:10 34.5 °F 32.4 °F 29.84 in Calm     92% 0.00 in 25 W/m2
15:16 34.5 °F 32.4 °F 29.84 in Calm     92% 0.00 in 16 W/m2
15:22 34.5 °F 32.4 °F 29.84 in Calm     92% 0.00 in 16 W/m2
15:28 34.5 °F 32.4 °F 29.84 in Calm     92% 0.00 in 16 W/m2
15:32 34.4 °F 32.3 °F 29.84 in Calm     92% 0.00 in 12 W/m2
15:38 34.3 °F 32.2 °F 29.84 in Calm     92% 0.06 in 12 W/m2
15:44 34.1 °F 32.0 °F 29.84 in Calm     92% 0.06 in 7 W/m2
15:50 34.1 °F 32.0 °F 29.84 in Calm     92% 0.04 in 5 W/m2
15:54 34.0 °F 31.9 °F 29.84 in Calm     92% 0.04 in 5 W/m2
16:00 33.8 °F 31.7 °F 29.84 in Calm     92% 0.09 in 5 W/m2
16:06 33.7 °F 31.6 °F 29.83 in Calm     92% 0.07 in 5 W/m2
16:12 33.6 °F 31.5 °F 29.83 in Calm   1.0 mph 92% 0.05 in 0 W/m2
16:18 33.5 °F 31.4 °F 29.83 in Calm   1.0 mph 92% 0.12 in 0 W/m2
16:24 33.4 °F 31.3 °F 29.83 in Calm     92% 0.06 in 0 W/m2
16:30 33.2 °F 31.1 °F 29.83 in Calm     92% 0.13 in 0 W/m2
16:36 33.2 °F 31.1 °F 29.83 in Calm     92% 0.07 in 0 W/m2
16:42 33.1 °F 31.0 °F 29.84 in Calm     92% 0.06 in 0 W/m2
16:54 33.0 °F 31.2 °F 29.84 in Calm     93% 0.07 in 0 W/m2
17:00 32.9 °F 31.1 °F 29.84 in Calm     93% 0.04 in 0 W/m2
17:06 32.9 °F 31.1 °F 29.84 in Calm     93% 0.00 in 0 W/m2
17:12 32.8 °F 30.7 °F 29.84 in Calm     92% 0.00 in 0 W/m2
17:18 33.0 °F 31.2 °F 29.84 in Calm     93% 0.00 in 0 W/m2
17:24 34.2 °F 32.4 °F 29.84 in SSW 1.0 mph 1.0 mph 93% 0.00 in 0 W/m2
17:30 36.3 °F 34.5 °F 29.84 in WSW 1.0 mph 3.0 mph 93% 0.00 in 0 W/m2
17:36 37.3 °F 35.5 °F 29.84 in SW 2.0 mph 3.0 mph 93% 0.00 in 0 W/m2
17:42 37.5 °F 35.7 °F 29.85 in SW 1.0 mph 3.0 mph 93% 0.00 in 0 W/m2
17:48 37.7 °F 35.9 °F 29.85 in SW 1.0 mph 3.0 mph 93% 0.00 in 0 W/m2
17:54 37.7 °F 35.9 °F 29.85 in SW 1.0 mph 2.0 mph 93% 0.00 in 0 W/m2
17:56 37.7 °F 35.9 °F 29.85 in SW 1.0 mph 3.0 mph 93% 0.00 in 0 W/m2
18:02 37.8 °F 36.0 °F 29.85 in SW 1.0 mph 1.0 mph 93% 0.07 in 0 W/m2
18:20 37.7 °F 35.9 °F 29.84 in SW 1.0 mph 1.0 mph 93% 0.04 in 0 W/m2
18:26 37.7 °F 35.9 °F 29.84 in SW 2.0 mph 2.0 mph 93% 0.07 in 0 W/m2
18:32 37.7 °F 35.9 °F 29.85 in SW 1.0 mph 2.0 mph 93% 0.06 in 0 W/m2
18:38 37.6 °F 35.8 °F 29.85 in WSW 1.0 mph 4.0 mph 93% 0.04 in 0 W/m2
18:44 37.7 °F 35.9 °F 29.85 in WSW 1.0 mph 1.0 mph 93% 0.04 in 0 W/m2
18:50 37.7 °F 35.9 °F 29.84 in South 1.0 mph 1.0 mph 93% 0.06 in 0 W/m2
18:52 37.6 °F 35.8 °F 29.84 in SSW 1.0 mph 1.0 mph 93% 0.06 in 0 W/m2
18:58 37.5 °F 35.7 °F 29.84 in SSW 1.0 mph 2.0 mph 93% 0.06 in 0 W/m2
19:04 37.6 °F 35.8 °F 29.84 in SSW 1.0 mph 1.0 mph 93% 0.04 in 0 W/m2
19:06 37.6 °F 35.8 °F 29.84 in SSW 1.0 mph 3.0 mph 93% 0.04 in 0 W/m2
19:12 37.5 °F 35.7 °F 29.84 in South 1.0 mph 3.0 mph 93% 0.04 in 0 W/m2
19:20 37.6 °F 35.8 °F 29.84 in South 1.0 mph 1.0 mph 93% 0.05 in 0 W/m2
19:26 37.5 °F 35.7 °F 29.83 in South 1.0 mph 1.0 mph 93% 0.05 in 0 W/m2
19:32 37.4 °F 35.6 °F 29.83 in Calm     93% 0.04 in 0 W/m2
19:38 37.4 °F 35.6 °F 29.83 in Calm   1.0 mph 93% 0.00 in 0 W/m2
19:44 37.3 °F 35.5 °F 29.83 in Calm     93% 0.00 in 0 W/m2
19:50 37.0 °F 35.2 °F 29.83 in Calm     93% 0.00 in 0 W/m2
19:56 36.8 °F 35.0 °F 29.83 in Calm     93% 0.00 in 0 W/m2
20:02 36.3 °F 34.2 °F 29.83 in Calm     92% 0.00 in 0 W/m2
20:08 36.2 °F 34.1 °F 29.83 in Calm     92% 0.00 in 0 W/m2
20:12 36.1 °F 34.3 °F 29.83 in Calm     93% 0.00 in 0 W/m2
20:18 35.9 °F 34.1 °F 29.83 in Calm     93% 0.00 in 0 W/m2
20:24 35.7 °F 33.6 °F 29.84 in Calm     92% 0.00 in 0 W/m2
20:36 36.0 °F 34.2 °F 29.83 in Calm     93% 0.00 in 0 W/m2
20:42 36.2 °F 34.4 °F 29.84 in Calm     93% 0.00 in 0 W/m2
20:48 36.3 °F 34.5 °F 29.84 in Calm     93% 0.00 in 0 W/m2
20:54 36.6 °F 34.8 °F 29.84 in Calm     93% 0.00 in 0 W/m2
20:56 36.7 °F 34.9 °F 29.84 in Calm     93% 0.00 in 0 W/m2
21:02 37.1 °F 35.3 °F 29.84 in South 1.0 mph 2.0 mph 93% 0.00 in 0 W/m2
21:08 37.3 °F 35.5 °F 29.83 in South 1.0 mph 2.0 mph 93% 0.00 in 0 W/m2
21:14 37.5 °F 35.7 °F 29.83 in Calm   2.0 mph 93% 0.00 in 0 W/m2
21:20 37.7 °F 35.9 °F 29.83 in Calm     93% 0.00 in 0 W/m2
21:26 37.7 °F 35.9 °F 29.83 in South 1.0 mph 1.0 mph 93% 0.00 in 0 W/m2
21:32 37.9 °F 35.8 °F 29.83 in South 1.0 mph 2.0 mph 92% 0.00 in 0 W/m2
21:38 38.0 °F 35.9 °F 29.83 in South 1.0 mph 2.0 mph 92% 0.00 in 0 W/m2
21:44 38.2 °F 36.1 °F 29.82 in SW 1.0 mph 1.0 mph 92% 0.00 in 0 W/m2
21:46 38.2 °F 36.1 °F 29.83 in SW 1.0 mph 3.0 mph 92% 0.00 in 0 W/m2
21:50 38.4 °F 36.0 °F 29.83 in SW 1.0 mph 2.0 mph 91% 0.00 in 0 W/m2
21:56 38.6 °F 36.2 °F 29.83 in SW 1.0 mph 3.0 mph 91% 0.00 in 0 W/m2
22:02 38.7 °F 36.0 °F 29.82 in SW 1.0 mph 5.0 mph 90% 0.00 in 0 W/m2
22:08 38.7 °F 36.0 °F 29.82 in SW 1.0 mph 5.0 mph 90% 0.00 in 0 W/m2
22:16 38.8 °F 35.8 °F 29.82 in SW 1.0 mph 4.0 mph 89% 0.00 in 0 W/m2
22:28 38.8 °F 35.8 °F 29.82 in SW 1.0 mph 3.0 mph 89% 0.00 in 0 W/m2
22:36 38.8 °F 35.6 °F 29.82 in SW 1.0 mph 1.0 mph 88% 0.00 in 0 W/m2
22:42 38.8 °F 35.6 °F 29.82 in WSW 1.0 mph 3.0 mph 88% 0.00 in 0 W/m2
22:48 39.0 °F 35.7 °F 29.82 in WSW 2.0 mph 3.0 mph 88% 0.00 in 0 W/m2
22:54 39.0 °F 35.7 °F 29.82 in WSW 2.0 mph 2.0 mph 88% 0.00 in 0 W/m2
23:00 39.1 °F 35.8 °F 29.82 in WSW 1.0 mph 1.0 mph 88% 0.00 in 0 W/m2
23:06 39.0 °F 35.7 °F 29.82 in WSW 1.0 mph 4.0 mph 88% 0.00 in 0 W/m2
23:14 39.0 °F 35.5 °F 29.82 in WSW 1.0 mph 1.0 mph 87% 0.00 in 0 W/m2
23:20 39.0 °F 35.5 °F 29.82 in WSW 1.0 mph 4.0 mph 87% 0.00 in 0 W/m2
23:22 39.0 °F 35.5 °F 29.82 in SW 1.0 mph 4.0 mph 87% 0.00 in 0 W/m2
23:28 39.0 °F 35.5 °F 29.82 in SSW 2.0 mph 4.0 mph 87% 0.00 in 0 W/m2
23:34 39.0 °F 35.5 °F 29.82 in SSW 1.0 mph 2.0 mph 87% 0.00 in 0 W/m2
23:40 39.0 °F 35.5 °F 29.82 in SW 1.0 mph 2.0 mph 87% 0.00 in 0 W/m2
23:46 38.8 °F 35.3 °F 29.82 in SW 1.0 mph 2.0 mph 87% 0.00 in 0 W/m2
23:52 38.7 °F 35.2 °F 29.82 in SW 1.0 mph 4.0 mph 87% 0.00 in 0 W/m2
23:58 38.8 °F 35.3 °F 29.82 in SW 2.0 mph 4.0 mph 87% 0.00 in 0 W/m2
Country Meadow, Clay, NY, USA
Compliments of Weather Underground - 2 mb